createdAt,value
2023-04-29T00:00:13.287Z,97829.34
2023-04-29T00:02:40.568Z,97827.56
2023-04-29T00:05:08.042Z,97830.75
2023-04-29T00:07:36.564Z,97834.91
2023-04-29T00:10:03.774Z,97824.22
2023-04-29T00:12:32.109Z,97821.50
2023-04-29T00:14:59.757Z,97818.41
2023-04-29T00:17:26.864Z,97814.00
2023-04-29T00:19:53.902Z,97816.62
2023-04-29T00:22:22.890Z,97805.09
2023-04-29T00:24:50.689Z,97804.91
2023-04-29T00:27:17.975Z,97808.78
2023-04-29T00:29:45.001Z,97811.91
2023-04-29T00:32:11.912Z,97810.09
2023-04-29T00:34:38.813Z,97801.91
2023-04-29T00:37:05.644Z,97800.59
2023-04-29T00:39:32.510Z,97805.34
2023-04-29T00:41:59.402Z,97815.50
2023-04-29T00:44:26.284Z,97808.31
2023-04-29T00:46:53.238Z,97809.69
2023-04-29T00:49:20.227Z,97821.37
2023-04-29T00:51:47.410Z,97821.63
2023-04-29T00:54:14.301Z,97822.22
2023-04-29T00:56:44.235Z,97827.53
2023-04-29T00:59:12.808Z,97811.16
2023-04-29T01:01:39.749Z,97809.53
2023-04-29T01:04:08.359Z,97818.66
2023-04-29T01:06:50.855Z,97819.22
2023-04-29T01:09:50.234Z,97811.91
2023-04-29T01:12:34.494Z,97807.84
2023-04-29T01:15:07.065Z,97795.75
2023-04-29T01:17:40.082Z,97805.44
2023-04-29T01:20:07.798Z,97806.53
2023-04-29T01:22:34.826Z,97800.13
2023-04-29T01:25:01.675Z,97807.50
2023-04-29T01:27:43.019Z,97802.28
2023-04-29T01:30:31.959Z,97812.31
2023-04-29T01:33:15.778Z,97802.97
2023-04-29T01:35:53.042Z,97802.16
2023-04-29T01:38:38.511Z,97794.44
2023-04-29T01:41:05.310Z,97779.12
2023-04-29T01:43:34.036Z,97785.59
2023-04-29T01:46:02.054Z,97789.28
2023-04-29T01:48:28.893Z,97784.72
2023-04-29T01:50:56.153Z,97783.03
2023-04-29T01:53:22.988Z,97788.31
2023-04-29T01:55:49.950Z,97787.72
2023-04-29T01:58:16.854Z,97794.28
2023-04-29T02:00:43.770Z,97790.41
2023-04-29T02:03:10.802Z,97798.41
2023-04-29T02:05:37.860Z,97809.81
2023-04-29T02:08:05.893Z,97815.69
2023-04-29T02:10:32.871Z,97813.09
2023-04-29T02:12:59.740Z,97812.66
2023-04-29T02:15:29.591Z,97820.28
2023-04-29T02:17:56.505Z,97828.53
2023-04-29T02:20:23.392Z,97823.06
2023-04-29T02:22:50.251Z,97828.91
2023-04-29T02:25:17.553Z,97819.66
2023-04-29T02:27:45.568Z,97821.47
2023-04-29T02:30:12.567Z,97819.19
2023-04-29T02:32:39.616Z,97811.28
2023-04-29T02:35:07.572Z,97807.63
2023-04-29T02:37:35.032Z,97807.69
2023-04-29T02:40:03.532Z,97807.84
2023-04-29T02:42:30.386Z,97809.50
2023-04-29T02:44:57.992Z,97809.28
2023-04-29T02:47:25.235Z,97810.56
2023-04-29T02:49:52.390Z,97807.00
2023-04-29T02:52:19.412Z,97798.34
2023-04-29T02:54:46.359Z,97794.44
2023-04-29T02:57:13.220Z,97797.59
2023-04-29T02:59:40.112Z,97804.13
2023-04-29T03:02:07.591Z,97806.50
2023-04-29T03:04:34.589Z,97808.03
2023-04-29T03:07:01.482Z,97821.78
2023-04-29T03:09:28.408Z,97811.31
2023-04-29T03:11:55.275Z,97811.25
2023-04-29T03:14:22.162Z,97810.19
2023-04-29T03:16:49.069Z,97807.28
2023-04-29T03:19:16.957Z,97813.22
2023-04-29T03:21:43.790Z,97811.34
2023-04-29T03:24:10.669Z,97816.19
2023-04-29T03:26:37.535Z,97809.34
2023-04-29T03:29:04.376Z,97813.37
2023-04-29T03:31:31.247Z,97823.50
2023-04-29T03:33:58.221Z,97819.13
2023-04-29T03:36:25.049Z,97816.09
2023-04-29T03:38:51.936Z,97828.50
2023-04-29T03:41:18.811Z,97833.75
2023-04-29T03:43:45.846Z,97834.03
2023-04-29T03:46:12.705Z,97837.50
2023-04-29T03:48:39.669Z,97835.69
2023-04-29T03:51:06.673Z,97825.94
2023-04-29T03:53:33.596Z,97836.66
2023-04-29T03:56:00.498Z,97830.34
2023-04-29T03:58:27.394Z,97832.78
2023-04-29T04:00:55.329Z,97832.16
2023-04-29T04:03:23.394Z,97838.50
2023-04-29T04:05:50.466Z,97833.00
2023-04-29T04:08:17.297Z,97839.84
2023-04-29T04:10:44.536Z,97847.12
2023-04-29T04:13:11.395Z,97849.00
2023-04-29T04:15:38.288Z,97849.63
2023-04-29T04:18:05.513Z,97845.88
2023-04-29T04:20:32.596Z,97856.53
2023-04-29T04:22:59.496Z,97852.69
2023-04-29T04:25:26.317Z,97860.47
2023-04-29T04:27:54.553Z,97853.53
2023-04-29T04:30:21.555Z,97860.44
2023-04-29T04:32:48.535Z,97857.25
2023-04-29T04:35:15.481Z,97844.28
2023-04-29T04:37:42.332Z,97843.19
2023-04-29T04:40:11.470Z,97838.25
2023-04-29T04:42:38.344Z,97838.06
2023-04-29T04:45:05.864Z,97839.97
2023-04-29T04:47:32.775Z,97835.59
2023-04-29T04:49:59.763Z,97829.53
2023-04-29T04:52:26.692Z,97832.44
2023-04-29T04:54:53.556Z,97833.47
2023-04-29T04:57:20.665Z,97828.72
2023-04-29T04:59:47.512Z,97818.25
2023-04-29T05:02:14.429Z,97821.81
2023-04-29T05:04:41.342Z,97820.69
2023-04-29T05:07:08.191Z,97817.88
2023-04-29T05:09:35.044Z,97820.69
2023-04-29T05:12:02.003Z,97814.31
2023-04-29T05:14:28.941Z,97821.19
2023-04-29T05:16:59.987Z,97826.13
2023-04-29T05:19:27.269Z,97819.72
2023-04-29T05:21:54.090Z,97825.03
2023-04-29T05:24:21.114Z,97830.84
2023-04-29T05:26:47.947Z,97829.88
2023-04-29T05:29:15.133Z,97833.88
2023-04-29T05:31:41.992Z,97829.56
2023-04-29T05:34:08.863Z,97826.91
2023-04-29T05:36:35.771Z,97821.31
2023-04-29T05:39:02.677Z,97820.25
2023-04-29T05:41:29.593Z,97819.25
2023-04-29T05:43:56.572Z,97831.00
2023-04-29T05:46:23.576Z,97835.75
2023-04-29T05:48:50.566Z,97838.88
2023-04-29T05:51:17.464Z,97843.41
2023-04-29T05:53:44.487Z,97839.19
2023-04-29T05:56:11.486Z,97824.72
2023-04-29T05:58:38.592Z,97825.38
2023-04-29T06:01:05.533Z,97829.09
2023-04-29T06:03:32.667Z,97835.44
2023-04-29T06:05:59.768Z,97839.66
2023-04-29T06:08:27.227Z,97835.56
2023-04-29T06:10:54.079Z,97831.78
2023-04-29T06:13:21.073Z,97840.94
2023-04-29T06:15:47.988Z,97838.97
2023-04-29T06:18:14.909Z,97837.25
2023-04-29T06:20:41.828Z,97849.03
2023-04-29T06:23:08.953Z,97843.72
2023-04-29T06:25:35.796Z,97846.09
2023-04-29T06:28:04.503Z,97839.31
2023-04-29T06:30:31.395Z,97836.41
2023-04-29T06:32:58.328Z,97843.25
2023-04-29T06:35:25.442Z,97850.94
2023-04-29T06:37:53.007Z,97850.25
2023-04-29T06:40:19.881Z,97860.34
2023-04-29T06:42:46.805Z,97865.81
2023-04-29T06:45:13.679Z,97863.31
2023-04-29T06:47:40.934Z,97869.94
2023-04-29T06:50:08.014Z,97866.81
2023-04-29T06:52:35.044Z,97863.09
2023-04-29T06:55:01.943Z,97870.44
2023-04-29T06:57:28.777Z,97874.50
2023-04-29T06:59:55.630Z,97869.41
2023-04-29T07:02:22.539Z,97870.84
2023-04-29T07:04:50.514Z,97875.88
2023-04-29T07:07:17.606Z,97867.78
2023-04-29T07:09:44.505Z,97863.47
2023-04-29T07:12:11.406Z,97871.12
2023-04-29T07:14:38.265Z,97871.56
2023-04-29T07:17:05.234Z,97875.09
2023-04-29T07:19:32.170Z,97870.16
2023-04-29T07:21:59.337Z,97867.97
2023-04-29T07:24:26.740Z,97866.41
2023-04-29T07:26:53.592Z,97868.69
2023-04-29T07:29:20.605Z,97871.28
2023-04-29T07:31:47.517Z,97876.41
2023-04-29T07:34:14.442Z,97871.41
2023-04-29T07:36:41.351Z,97873.31
2023-04-29T07:39:08.340Z,97876.66
2023-04-29T07:41:35.221Z,97875.63
2023-04-29T07:44:02.239Z,97880.88
2023-04-29T07:46:29.188Z,97881.13
2023-04-29T07:48:56.230Z,97889.69
2023-04-29T07:51:23.142Z,97889.56
2023-04-29T07:53:49.998Z,97896.19
2023-04-29T07:56:16.871Z,97903.31
2023-04-29T07:58:43.727Z,97902.63
2023-04-29T08:01:12.360Z,97888.50
2023-04-29T08:03:41.676Z,97892.88
2023-04-29T08:06:09.300Z,97893.22
2023-04-29T08:08:36.336Z,97893.09
2023-04-29T08:11:03.700Z,97893.09
2023-04-29T08:13:30.559Z,97905.66
2023-04-29T08:15:57.497Z,97895.22
2023-04-29T08:18:24.391Z,97902.12
2023-04-29T08:20:51.720Z,97893.94
2023-04-29T08:23:18.618Z,97903.72
2023-04-29T08:25:45.593Z,97893.94
2023-04-29T08:28:12.509Z,97897.47
2023-04-29T08:30:41.108Z,97894.09
2023-04-29T08:33:08.533Z,97898.69
2023-04-29T08:35:39.204Z,97895.38
2023-04-29T08:38:06.834Z,97902.56
2023-04-29T08:40:46.309Z,97895.50
2023-04-29T08:43:17.042Z,97899.94
2023-04-29T08:45:44.399Z,97894.03
2023-04-29T08:48:11.946Z,97904.78
2023-04-29T08:50:41.558Z,97903.06
2023-04-29T08:53:09.313Z,97896.06
2023-04-29T08:55:37.375Z,97897.87
2023-04-29T08:58:04.703Z,97894.78
2023-04-29T09:00:33.038Z,97909.84
2023-04-29T09:03:01.468Z,97908.19
2023-04-29T09:05:28.717Z,97912.56
2023-04-29T09:07:59.784Z,97916.59
2023-04-29T09:10:26.722Z,97904.53
2023-04-29T09:12:57.916Z,97907.38
2023-04-29T09:15:24.760Z,97903.66
2023-04-29T09:17:51.834Z,97903.78
2023-04-29T09:20:22.131Z,97902.34
2023-04-29T09:23:04.838Z,97902.94
2023-04-29T09:25:31.992Z,97902.94
2023-04-29T09:27:58.882Z,97908.44
2023-04-29T09:30:26.992Z,97902.66
2023-04-29T09:33:08.185Z,97908.47
2023-04-29T09:35:35.705Z,97905.34
2023-04-29T09:38:28.990Z,97903.72
2023-04-29T09:40:58.797Z,97903.44
2023-04-29T09:43:27.086Z,97901.41
2023-04-29T09:45:54.105Z,97907.25
2023-04-29T09:48:21.026Z,97903.44
2023-04-29T09:51:02.948Z,97890.84
2023-04-29T09:53:31.319Z,97891.84
2023-04-29T09:56:00.641Z,97885.88
2023-04-29T09:58:34.261Z,97894.59
2023-04-29T10:01:02.747Z,97884.50
2023-04-29T10:03:38.125Z,97893.75
2023-04-29T10:06:06.866Z,97895.84
2023-04-29T10:08:35.162Z,97893.09
2023-04-29T10:11:03.836Z,97894.19
2023-04-29T10:13:31.028Z,97886.19
2023-04-29T10:16:08.996Z,97885.72
2023-04-29T10:18:39.824Z,97880.03
2023-04-29T10:21:08.624Z,97886.25
2023-04-29T10:23:36.616Z,97878.97
2023-04-29T10:26:03.937Z,97875.75
2023-04-29T10:28:33.765Z,97875.09
2023-04-29T10:31:05.650Z,97877.41
2023-04-29T10:33:34.141Z,97867.06
2023-04-29T10:36:01.647Z,97870.66
2023-04-29T10:38:34.322Z,97876.16
2023-04-29T10:41:04.408Z,97871.78
2023-04-29T10:43:32.102Z,97863.78
2023-04-29T10:46:17.986Z,97853.25
2023-04-29T10:48:45.966Z,97866.69
2023-04-29T10:51:13.127Z,97863.03
2023-04-29T10:54:15.681Z,97855.41
2023-04-29T10:56:50.637Z,97855.97
2023-04-29T10:59:43.364Z,97856.22
2023-04-29T11:02:11.086Z,97857.00
2023-04-29T11:05:07.321Z,97850.84
2023-04-29T11:07:34.179Z,97851.87
2023-04-29T11:10:02.647Z,97850.69
2023-04-29T11:12:29.468Z,97856.22
2023-04-29T11:15:03.362Z,97865.03
2023-04-29T11:17:36.657Z,97856.63
2023-04-29T11:20:04.094Z,97859.25
2023-04-29T11:22:32.274Z,97860.69
2023-04-29T11:25:09.328Z,97862.34
2023-04-29T11:27:36.759Z,97848.12
2023-04-29T11:30:05.500Z,97845.38
2023-04-29T11:32:37.922Z,97855.75
2023-04-29T11:35:08.932Z,97844.03
2023-04-29T11:37:36.735Z,97844.56
2023-04-29T11:40:03.771Z,97846.13
2023-04-29T11:42:31.008Z,97846.22
2023-04-29T11:45:00.498Z,97844.97
2023-04-29T11:47:29.219Z,97841.47
2023-04-29T11:50:08.248Z,97837.78
2023-04-29T11:52:39.392Z,97838.94
2023-04-29T11:55:08.772Z,97844.78
2023-04-29T11:57:36.429Z,97844.69
2023-04-29T12:00:07.282Z,97837.56
2023-04-29T12:02:36.268Z,97840.97
2023-04-29T12:05:07.750Z,97832.06
2023-04-29T12:07:35.956Z,97824.44
2023-04-29T12:10:02.981Z,97836.06
2023-04-29T12:12:31.787Z,97829.31
2023-04-29T12:14:58.700Z,97833.81
2023-04-29T12:17:25.610Z,97829.81
2023-04-29T12:19:52.564Z,97830.31
2023-04-29T12:22:20.262Z,97824.94
2023-04-29T12:24:47.761Z,97827.44
2023-04-29T12:27:14.653Z,97823.69
2023-04-29T12:29:41.515Z,97822.34
2023-04-29T12:32:09.227Z,97827.28
2023-04-29T12:34:36.135Z,97819.47
2023-04-29T12:37:03.172Z,97822.56
2023-04-29T12:39:31.030Z,97826.53
2023-04-29T12:41:59.412Z,97815.81
2023-04-29T12:44:26.539Z,97819.09
2023-04-29T12:46:55.716Z,97815.25
2023-04-29T12:49:25.050Z,97809.62
2023-04-29T12:51:52.077Z,97808.41
2023-04-29T12:54:18.954Z,97810.81
2023-04-29T12:56:48.498Z,97802.00
2023-04-29T12:59:16.048Z,97799.66
2023-04-29T13:01:42.956Z,97799.50
2023-04-29T13:04:11.892Z,97786.09
2023-04-29T13:06:42.384Z,97787.44
2023-04-29T13:09:17.955Z,97787.22
2023-04-29T13:11:45.600Z,97784.56
2023-04-29T13:14:12.488Z,97790.72
2023-04-29T13:16:39.407Z,97786.28
2023-04-29T13:19:24.686Z,97787.91
2023-04-29T13:21:54.136Z,97780.09
2023-04-29T13:24:21.269Z,97779.38
2023-04-29T13:26:50.931Z,97775.25
2023-04-29T13:29:19.199Z,97781.38
2023-04-29T13:31:46.123Z,97782.25
2023-04-29T13:34:13.146Z,97779.53
2023-04-29T13:36:40.138Z,97780.34
2023-04-29T13:39:07.370Z,97772.84
2023-04-29T13:41:35.689Z,97773.69
2023-04-29T13:44:03.457Z,97770.72
2023-04-29T13:46:32.185Z,97766.63
2023-04-29T13:54:48.187Z,97762.06
2023-04-29T13:59:41.530Z,97763.94
2023-04-29T14:04:32.994Z,97761.00
2023-04-29T14:06:59.973Z,97763.34
2023-04-29T14:09:27.372Z,97763.13
2023-04-29T14:11:54.262Z,97763.34
2023-04-29T14:14:21.294Z,97762.31
2023-04-29T14:16:48.144Z,97766.56
2023-04-29T14:19:15.066Z,97772.00
2023-04-29T14:21:41.959Z,97779.47
2023-04-29T14:24:08.874Z,97780.34
2023-04-29T14:26:36.917Z,97769.72
2023-04-29T14:29:03.754Z,97772.53
2023-04-29T14:31:35.584Z,97772.81
2023-04-29T14:34:02.814Z,97766.78
2023-04-29T14:36:29.768Z,97762.69
2023-04-29T14:38:56.649Z,97759.13
2023-04-29T14:41:23.529Z,97754.06
2023-04-29T14:43:50.515Z,97756.78
2023-04-29T14:46:17.817Z,97752.84
2023-04-29T14:48:44.806Z,97748.16
2023-04-29T14:51:12.024Z,97753.16
2023-04-29T14:53:39.270Z,97751.06
2023-04-29T14:56:08.015Z,97758.25
2023-04-29T14:58:34.934Z,97747.41
2023-04-29T15:01:01.818Z,97754.91
2023-04-29T15:03:28.868Z,97749.31
2023-04-29T15:05:56.498Z,97743.63
2023-04-29T15:08:23.431Z,97752.09
2023-04-29T15:10:50.420Z,97749.41
2023-04-29T15:13:17.380Z,97755.19
2023-04-29T15:15:44.320Z,97760.56
2023-04-29T15:18:11.356Z,97758.53
2023-04-29T15:20:38.639Z,97749.31
2023-04-29T15:23:06.185Z,97750.97
2023-04-29T15:25:34.712Z,97757.38
2023-04-29T15:28:04.087Z,97764.75
2023-04-29T15:30:31.066Z,97767.53
2023-04-29T15:32:57.948Z,97767.66
2023-04-29T15:35:24.912Z,97765.34
2023-04-29T15:37:51.832Z,97758.94
2023-04-29T15:40:21.993Z,97758.25
2023-04-29T15:42:48.896Z,97756.94
2023-04-29T15:45:17.069Z,97758.53
2023-04-29T15:47:44.095Z,97765.91
2023-04-29T15:50:11.698Z,97765.19
2023-04-29T15:52:38.599Z,97767.06
2023-04-29T15:55:06.707Z,97761.72
2023-04-29T15:57:34.943Z,97760.50
2023-04-29T16:00:01.927Z,97763.41
2023-04-29T16:02:28.904Z,97761.97
2023-04-29T16:04:55.944Z,97761.84
2023-04-29T16:07:22.832Z,97760.03
2023-04-29T16:09:49.672Z,97759.78
2023-04-29T16:12:16.550Z,97763.53
2023-04-29T16:14:43.398Z,97754.75
2023-04-29T16:17:10.318Z,97760.44
2023-04-29T16:19:37.513Z,97754.22
2023-04-29T16:22:04.971Z,97764.62
2023-04-29T16:24:32.133Z,97759.78
2023-04-29T16:26:59.390Z,97760.00
2023-04-29T16:29:26.535Z,97754.06
2023-04-29T16:31:53.535Z,97765.81
2023-04-29T16:34:20.624Z,97760.81
2023-04-29T16:36:47.575Z,97759.25
2023-04-29T16:39:14.633Z,97764.94
2023-04-29T16:41:41.781Z,97773.50
2023-04-29T16:44:09.164Z,97768.19
2023-04-29T16:46:36.356Z,97773.69
2023-04-29T16:49:03.500Z,97780.78
2023-04-29T16:51:30.456Z,97778.62
2023-04-29T16:53:57.348Z,97781.19
2023-04-29T16:56:24.311Z,97785.06
2023-04-29T16:58:51.304Z,97788.66
2023-04-29T17:01:21.101Z,97783.09
2023-04-29T17:03:48.375Z,97788.19
2023-04-29T17:06:18.316Z,97787.94
2023-04-29T17:08:45.748Z,97791.00
2023-04-29T17:11:12.824Z,97791.22
2023-04-29T17:13:39.730Z,97790.75
2023-04-29T17:16:07.274Z,97790.91
2023-04-29T17:18:34.443Z,97785.41
2023-04-29T17:21:01.383Z,97801.75
2023-04-29T17:23:28.286Z,97793.91
2023-04-29T17:25:55.735Z,97794.66
2023-04-29T17:28:23.515Z,97800.81
2023-04-29T17:30:50.484Z,97799.50
2023-04-29T17:33:17.864Z,97796.81
2023-04-29T17:35:45.427Z,97801.38
2023-04-29T17:38:12.416Z,97804.28
2023-04-29T17:40:39.470Z,97807.06
2023-04-29T17:43:06.412Z,97810.28
2023-04-29T17:45:33.488Z,97810.94
2023-04-29T17:48:00.762Z,97806.91
2023-04-29T17:50:27.924Z,97814.59
2023-04-29T17:52:54.826Z,97815.59
2023-04-29T17:55:21.766Z,97815.28
2023-04-29T17:57:48.722Z,97812.84
2023-04-29T18:00:15.975Z,97823.69
2023-04-29T18:02:42.948Z,97817.38
2023-04-29T18:05:10.305Z,97818.50
2023-04-29T18:07:37.231Z,97825.19
2023-04-29T18:10:06.052Z,97829.41
2023-04-29T18:12:33.272Z,97826.38
2023-04-29T18:15:00.889Z,97822.06
2023-04-29T18:17:27.845Z,97834.81
2023-04-29T18:19:55.160Z,97828.87
2023-04-29T18:22:22.311Z,97826.31
2023-04-29T18:24:49.897Z,97825.09
2023-04-29T18:27:16.982Z,97821.94
2023-04-29T18:29:45.467Z,97827.53
2023-04-29T18:32:12.388Z,97834.50
2023-04-29T18:34:39.296Z,97843.31
2023-04-29T18:37:06.192Z,97845.00
2023-04-29T18:39:33.173Z,97836.56
2023-04-29T18:42:00.460Z,97847.44
2023-04-29T18:44:28.126Z,97844.19
2023-04-29T18:46:55.091Z,97839.72
2023-04-29T18:49:21.975Z,97851.50
2023-04-29T18:51:49.974Z,97849.19
2023-04-29T18:54:18.934Z,97855.03
2023-04-29T18:56:50.333Z,97854.59
2023-04-29T18:59:19.822Z,97852.72
2023-04-29T19:01:47.841Z,97852.19
2023-04-29T19:04:15.748Z,97856.28
2023-04-29T19:06:42.887Z,97860.03
2023-04-29T19:09:10.672Z,97858.66
2023-04-29T19:11:37.552Z,97862.09
2023-04-29T19:14:04.466Z,97866.47
2023-04-29T19:16:31.436Z,97870.69
2023-04-29T19:18:58.339Z,97874.19
2023-04-29T19:21:25.309Z,97881.87
2023-04-29T19:23:52.428Z,97878.66
2023-04-29T19:26:19.314Z,97885.69
2023-04-29T19:28:46.397Z,97887.78
2023-04-29T19:31:13.329Z,97884.75
2023-04-29T19:33:40.213Z,97888.16
2023-04-29T19:36:07.666Z,97884.97
2023-04-29T19:38:34.591Z,97886.94
2023-04-29T19:41:01.630Z,97891.78
2023-04-29T19:43:28.904Z,97891.78
2023-04-29T19:45:55.772Z,97895.81
2023-04-29T19:48:22.693Z,97893.41
2023-04-29T19:50:49.594Z,97891.16
2023-04-29T19:53:16.496Z,97892.41
2023-04-29T19:55:43.480Z,97896.84
2023-04-29T19:58:10.834Z,97893.09
2023-04-29T20:00:37.813Z,97896.84
2023-04-29T20:03:04.787Z,97901.12
2023-04-29T20:05:31.651Z,97912.19
2023-04-29T20:07:58.564Z,97909.47
2023-04-29T20:10:28.126Z,97902.84
2023-04-29T20:12:56.850Z,97913.63
2023-04-29T20:15:23.736Z,97911.72
2023-04-29T20:17:50.913Z,97907.69
2023-04-29T20:20:17.935Z,97903.06
2023-04-29T20:22:44.793Z,97909.84
2023-04-29T20:25:11.730Z,97907.84
2023-04-29T20:27:38.707Z,97906.31
2023-04-29T20:30:06.313Z,97907.81
2023-04-29T20:32:33.185Z,97909.41
2023-04-29T20:35:00.121Z,97903.84
2023-04-29T20:37:27.031Z,97915.25
2023-04-29T20:39:54.083Z,97916.38
2023-04-29T20:42:21.180Z,97909.25
2023-04-29T20:44:48.038Z,97914.44
2023-04-29T20:47:15.414Z,97919.81
2023-04-29T20:49:42.740Z,97925.75
2023-04-29T20:52:09.608Z,97929.84
2023-04-29T20:54:36.481Z,97932.88
2023-04-29T20:57:05.738Z,97933.88
2023-04-29T20:59:33.720Z,97931.34
2023-04-29T21:02:00.674Z,97934.53
2023-04-29T21:04:27.647Z,97932.25
2023-04-29T21:06:54.632Z,97929.72
2023-04-29T21:09:21.857Z,97928.03
2023-04-29T21:11:48.818Z,97924.59
2023-04-29T21:14:15.893Z,97930.69
2023-04-29T21:16:42.970Z,97922.53
2023-04-29T21:19:10.069Z,97927.06
2023-04-29T21:21:36.956Z,97921.81
2023-04-29T21:24:04.008Z,97921.53
2023-04-29T21:26:30.985Z,97916.34
2023-04-29T21:28:57.889Z,97920.37
2023-04-29T21:31:24.763Z,97921.78
2023-04-29T21:33:51.820Z,97919.91
2023-04-29T21:36:18.691Z,97925.06
2023-04-29T21:38:45.598Z,97920.81
2023-04-29T21:41:23.310Z,97933.09
2023-04-29T21:43:50.891Z,97936.22
2023-04-29T21:46:18.109Z,97941.13
2023-04-29T21:48:45.498Z,97943.63
2023-04-29T21:51:12.597Z,97951.81
2023-04-29T21:53:39.605Z,97950.37
2023-04-29T21:56:06.801Z,97959.06
2023-04-29T21:58:33.950Z,97967.38
2023-04-29T22:01:15.793Z,97961.34
2023-04-29T22:03:42.734Z,97962.66
2023-04-29T22:06:09.610Z,97975.69
2023-04-29T22:08:36.627Z,97964.41
2023-04-29T22:11:04.282Z,97964.69
2023-04-29T22:13:31.242Z,97969.22
2023-04-29T22:15:58.114Z,97971.09
2023-04-29T22:18:25.079Z,97966.66
2023-04-29T22:20:52.231Z,97962.50
2023-04-29T22:23:19.166Z,97960.56
2023-04-29T22:25:45.995Z,97959.41
2023-04-29T22:28:12.853Z,97973.41
2023-04-29T22:30:39.707Z,97972.72
2023-04-29T22:33:06.853Z,97966.47
2023-04-29T22:35:33.750Z,97962.69
2023-04-29T22:38:00.649Z,97964.38
2023-04-29T22:40:27.831Z,97968.91
2023-04-29T22:42:54.669Z,97967.09
2023-04-29T22:45:21.562Z,97962.19
2023-04-29T22:47:48.556Z,97966.00
2023-04-29T22:50:15.668Z,97959.88
2023-04-29T22:52:42.538Z,97968.69
2023-04-29T22:55:09.848Z,97958.59
2023-04-29T22:57:36.794Z,97962.62
2023-04-29T23:00:03.867Z,97965.28
2023-04-29T23:02:30.724Z,97968.47
2023-04-29T23:04:58.560Z,97961.91
2023-04-29T23:07:26.006Z,97962.66
2023-04-29T23:09:53.279Z,97972.44
2023-04-29T23:12:20.516Z,97968.06
2023-04-29T23:14:47.489Z,97973.03
2023-04-29T23:17:14.378Z,97969.00
2023-04-29T23:19:41.373Z,97963.56
2023-04-29T23:22:08.386Z,97967.81
2023-04-29T23:24:35.794Z,97957.84
2023-04-29T23:27:05.377Z,97958.25
2023-04-29T23:29:35.358Z,97961.66
2023-04-29T23:32:02.252Z,97952.88
2023-04-29T23:34:29.184Z,97951.78
2023-04-29T23:36:56.096Z,97955.91
2023-04-29T23:39:23.018Z,97952.53
2023-04-29T23:41:50.030Z,97956.09
2023-04-29T23:44:16.926Z,97954.50
2023-04-29T23:46:43.936Z,97959.44
2023-04-29T23:49:10.906Z,97960.44
2023-04-29T23:51:37.923Z,97962.94
2023-04-29T23:54:04.853Z,97956.78
2023-04-29T23:56:33.780Z,97965.34
2023-04-29T23:59:00.873Z,97963.94
